sensor_id;sensor_type;location;lat;lon;timestamp;temperature;humidity
12426;DHT22;6277;49.824;9.562;2024-01-15T00:00:38;0.80;75.60
12426;DHT22;6277;49.824;9.562;2024-01-15T00:03:04;0.90;75.60
12426;DHT22;6277;49.824;9.562;2024-01-15T00:05:30;0.80;75.60
12426;DHT22;6277;49.824;9.562;2024-01-15T00:07:55;0.80;75.70
12426;DHT22;6277;49.824;9.562;2024-01-15T00:10:21;0.80;75.70
12426;DHT22;6277;49.824;9.562;2024-01-15T00:12:46;0.80;75.70
12426;DHT22;6277;49.824;9.562;2024-01-15T00:15:12;0.80;75.70
12426;DHT22;6277;49.824;9.562;2024-01-15T00:17:39;0.80;75.70
12426;DHT22;6277;49.824;9.562;2024-01-15T00:20:05;0.80;75.70
12426;DHT22;6277;49.824;9.562;2024-01-15T00:22:30;0.80;75.70
12426;DHT22;6277;49.824;9.562;2024-01-15T00:24:57;0.80;75.80
12426;DHT22;6277;49.824;9.562;2024-01-15T00:27:22;0.70;75.70
12426;DHT22;6277;49.824;9.562;2024-01-15T00:29:49;0.80;75.80
12426;DHT22;6277;49.824;9.562;2024-01-15T00:32:16;0.70;75.80
12426;DHT22;6277;49.824;9.562;2024-01-15T00:34:41;0.70;75.70
12426;DHT22;6277;49.824;9.562;2024-01-15T00:37:07;0.70;75.80
12426;DHT22;6277;49.824;9.562;2024-01-15T00:39:33;0.70;75.80
12426;DHT22;6277;49.824;9.562;2024-01-15T00:41:58;0.70;75.80
12426;DHT22;6277;49.824;9.562;2024-01-15T00:44:24;0.70;75.90
12426;DHT22;6277;49.824;9.562;2024-01-15T00:46:49;0.70;76.00
12426;DHT22;6277;49.824;9.562;2024-01-15T00:49:15;0.70;76.00
12426;DHT22;6277;49.824;9.562;2024-01-15T00:51:41;0.70;76.00
12426;DHT22;6277;49.824;9.562;2024-01-15T00:54:07;0.70;75.90
12426;DHT22;6277;49.824;9.562;2024-01-15T00:56:32;0.70;75.90
12426;DHT22;6277;49.824;9.562;2024-01-15T00:58:58;0.70;76.00
12426;DHT22;6277;49.824;9.562;2024-01-15T01:01:24;0.70;76.00
12426;DHT22;6277;49.824;9.562;2024-01-15T01:03:49;0.70;76.00
12426;DHT22;6277;49.824;9.562;2024-01-15T01:06:15;0.70;76.00
12426;DHT22;6277;49.824;9.562;2024-01-15T01:08:40;0.70;76.00
12426;DHT22;6277;49.824;9.562;2024-01-15T01:11:06;0.70;76.00
12426;DHT22;6277;49.824;9.562;2024-01-15T01:13:35;0.70;76.10
12426;DHT22;6277;49.824;9.562;2024-01-15T01:16:00;0.70;76.00
12426;DHT22;6277;49.824;9.562;2024-01-15T01:18:26;0.70;76.10
12426;DHT22;6277;49.824;9.562;2024-01-15T01:20:51;0.80;76.10
12426;DHT22;6277;49.824;9.562;2024-01-15T01:23:17;0.80;76.20
12426;DHT22;6277;49.824;9.562;2024-01-15T01:25:42;0.80;76.20
12426;DHT22;6277;49.824;9.562;2024-01-15T01:28:08;0.80;76.20
12426;DHT22;6277;49.824;9.562;2024-01-15T01:30:34;0.70;76.10
12426;DHT22;6277;49.824;9.562;2024-01-15T01:33:00;0.70;76.10
12426;DHT22;6277;49.824;9.562;2024-01-15T01:35:25;0.70;76.10
12426;DHT22;6277;49.824;9.562;2024-01-15T01:37:51;0.70;76.20
12426;DHT22;6277;49.824;9.562;2024-01-15T01:40:16;0.80;76.20
12426;DHT22;6277;49.824;9.562;2024-01-15T01:42:42;0.70;76.30
12426;DHT22;6277;49.824;9.562;2024-01-15T01:45:08;0.80;76.90
12426;DHT22;6277;49.824;9.562;2024-01-15T01:47:34;0.70;76.20
12426;DHT22;6277;49.824;9.562;2024-01-15T01:49:59;0.80;76.30
12426;DHT22;6277;49.824;9.562;2024-01-15T01:52:26;0.80;76.40
12426;DHT22;6277;49.824;9.562;2024-01-15T01:54:52;0.80;76.30
12426;DHT22;6277;49.824;9.562;2024-01-15T01:57:18;0.80;76.40
12426;DHT22;6277;49.824;9.562;2024-01-15T01:59:45;0.80;76.40
12426;DHT22;6277;49.824;9.562;2024-01-15T02:02:12;0.80;76.40
12426;DHT22;6277;49.824;9.562;2024-01-15T02:04:37;0.80;76.40
12426;DHT22;6277;49.824;9.562;2024-01-15T02:07:03;0.80;76.40
12426;DHT22;6277;49.824;9.562;2024-01-15T02:09:29;0.80;76.40
12426;DHT22;6277;49.824;9.562;2024-01-15T02:11:55;0.80;76.40
12426;DHT22;6277;49.824;9.562;2024-01-15T02:14:20;0.80;76.50
12426;DHT22;6277;49.824;9.562;2024-01-15T02:16:47;0.80;76.50
12426;DHT22;6277;49.824;9.562;2024-01-15T02:19:16;0.80;76.50
12426;DHT22;6277;49.824;9.562;2024-01-15T02:21:42;0.80;76.50
12426;DHT22;6277;49.824;9.562;2024-01-15T02:24:08;0.90;76.60
12426;DHT22;6277;49.824;9.562;2024-01-15T02:26:33;0.90;76.60
12426;DHT22;6277;49.824;9.562;2024-01-15T02:29:01;0.90;76.60
12426;DHT22;6277;49.824;9.562;2024-01-15T02:31:27;0.90;76.70
12426;DHT22;6277;49.824;9.562;2024-01-15T02:33:53;0.90;76.60
12426;DHT22;6277;49.824;9.562;2024-01-15T02:36:18;0.90;76.60
12426;DHT22;6277;49.824;9.562;2024-01-15T02:38:44;0.90;76.60
12426;DHT22;6277;49.824;9.562;2024-01-15T02:41:09;0.90;76.60
12426;DHT22;6277;49.824;9.562;2024-01-15T02:43:35;0.90;76.60
12426;DHT22;6277;49.824;9.562;2024-01-15T02:46:00;1.00;76.70
12426;DHT22;6277;49.824;9.562;2024-01-15T02:48:26;1.00;76.70
12426;DHT22;6277;49.824;9.562;2024-01-15T02:50:51;1.00;76.70
12426;DHT22;6277;49.824;9.562;2024-01-15T02:53:17;1.00;76.80
12426;DHT22;6277;49.824;9.562;2024-01-15T02:55:42;1.00;76.80
12426;DHT22;6277;49.824;9.562;2024-01-15T02:58:08;1.00;76.80
12426;DHT22;6277;49.824;9.562;2024-01-15T03:00:33;1.00;76.80
12426;DHT22;6277;49.824;9.562;2024-01-15T03:02:59;1.10;76.80
12426;DHT22;6277;49.824;9.562;2024-01-15T03:05:25;1.10;76.80
12426;DHT22;6277;49.824;9.562;2024-01-15T03:07:50;1.10;76.80
12426;DHT22;6277;49.824;9.562;2024-01-15T03:10:16;1.10;76.80
12426;DHT22;6277;49.824;9.562;2024-01-15T03:12:41;1.10;76.80
12426;DHT22;6277;49.824;9.562;2024-01-15T03:15:07;1.10;76.80
12426;DHT22;6277;49.824;9.562;2024-01-15T03:17:32;1.10;76.90
12426;DHT22;6277;49.824;9.562;2024-01-15T03:19:58;1.20;76.90
12426;DHT22;6277;49.824;9.562;2024-01-15T03:22:23;1.20;77.00
12426;DHT22;6277;49.824;9.562;2024-01-15T03:24:49;1.20;77.00
12426;DHT22;6277;49.824;9.562;2024-01-15T03:27:15;1.20;76.90
12426;DHT22;6277;49.824;9.562;2024-01-15T03:29:41;1.20;77.00
12426;DHT22;6277;49.824;9.562;2024-01-15T03:32:06;1.30;77.00
12426;DHT22;6277;49.824;9.562;2024-01-15T03:34:32;1.30;76.90
12426;DHT22;6277;49.824;9.562;2024-01-15T03:36:57;1.30;77.00
12426;DHT22;6277;49.824;9.562;2024-01-15T03:39:24;1.30;76.90
12426;DHT22;6277;49.824;9.562;2024-01-15T03:41:50;1.30;76.90
12426;DHT22;6277;49.824;9.562;2024-01-15T03:44:15;1.40;77.00
12426;DHT22;6277;49.824;9.562;2024-01-15T03:46:41;1.40;77.00
12426;DHT22;6277;49.824;9.562;2024-01-15T03:49:06;1.40;77.00
12426;DHT22;6277;49.824;9.562;2024-01-15T03:51:32;1.40;77.00
12426;DHT22;6277;49.824;9.562;2024-01-15T03:53:57;1.40;77.00
12426;DHT22;6277;49.824;9.562;2024-01-15T03:56:23;1.40;77.00
12426;DHT22;6277;49.824;9.562;2024-01-15T03:58:48;1.40;77.00
12426;DHT22;6277;49.824;9.562;2024-01-15T04:01:14;1.50;77.00
12426;DHT22;6277;49.824;9.562;2024-01-15T04:03:39;1.50;77.10
12426;DHT22;6277;49.824;9.562;2024-01-15T04:06:05;1.50;77.10
12426;DHT22;6277;49.824;9.562;2024-01-15T04:08:31;1.50;77.20
12426;DHT22;6277;49.824;9.562;2024-01-15T04:10:56;1.60;77.20
12426;DHT22;6277;49.824;9.562;2024-01-15T04:13:22;1.60;77.20
12426;DHT22;6277;49.824;9.562;2024-01-15T04:15:47;1.60;77.10
12426;DHT22;6277;49.824;9.562;2024-01-15T04:18:13;1.70;77.20
12426;DHT22;6277;49.824;9.562;2024-01-15T04:20:39;1.70;77.10
12426;DHT22;6277;49.824;9.562;2024-01-15T04:23:05;1.70;77.10
12426;DHT22;6277;49.824;9.562;2024-01-15T04:25:30;1.80;77.20
12426;DHT22;6277;49.824;9.562;2024-01-15T04:27:56;1.80;77.20
12426;DHT22;6277;49.824;9.562;2024-01-15T04:30:22;1.80;77.10
12426;DHT22;6277;49.824;9.562;2024-01-15T04:32:47;1.80;77.10
12426;DHT22;6277;49.824;9.562;2024-01-15T04:35:13;1.80;77.00
12426;DHT22;6277;49.824;9.562;2024-01-15T04:37:39;1.80;77.00
12426;DHT22;6277;49.824;9.562;2024-01-15T04:40:06;1.80;77.00
12426;DHT22;6277;49.824;9.562;2024-01-15T04:42:31;1.80;77.10
12426;DHT22;6277;49.824;9.562;2024-01-15T04:44:57;1.80;77.10
12426;DHT22;6277;49.824;9.562;2024-01-15T04:47:22;1.80;77.10
12426;DHT22;6277;49.824;9.562;2024-01-15T04:49:48;1.80;77.10
12426;DHT22;6277;49.824;9.562;2024-01-15T04:52:14;1.80;77.20
12426;DHT22;6277;49.824;9.562;2024-01-15T04:54:40;1.80;77.20
12426;DHT22;6277;49.824;9.562;2024-01-15T04:57:05;1.80;77.20
12426;DHT22;6277;49.824;9.562;2024-01-15T04:59:31;1.80;77.20
12426;DHT22;6277;49.824;9.562;2024-01-15T05:01:56;1.80;77.20
12426;DHT22;6277;49.824;9.562;2024-01-15T05:04:22;1.80;77.30
12426;DHT22;6277;49.824;9.562;2024-01-15T05:06:48;1.80;77.20
12426;DHT22;6277;49.824;9.562;2024-01-15T05:09:14;1.90;77.30
12426;DHT22;6277;49.824;9.562;2024-01-15T05:11:39;1.90;77.40
12426;DHT22;6277;49.824;9.562;2024-01-15T05:14:05;1.90;77.30
12426;DHT22;6277;49.824;9.562;2024-01-15T05:16:30;1.90;77.30
12426;DHT22;6277;49.824;9.562;2024-01-15T05:18:56;2.00;77.30
12426;DHT22;6277;49.824;9.562;2024-01-15T05:21:22;2.00;77.30
12426;DHT22;6277;49.824;9.562;2024-01-15T05:23:47;2.00;77.40
12426;DHT22;6277;49.824;9.562;2024-01-15T05:26:13;2.00;77.30
12426;DHT22;6277;49.824;9.562;2024-01-15T05:28:40;1.90;77.20
12426;DHT22;6277;49.824;9.562;2024-01-15T05:31:06;2.00;77.30
12426;DHT22;6277;49.824;9.562;2024-01-15T05:33:31;2.00;77.30
12426;DHT22;6277;49.824;9.562;2024-01-15T05:35:57;2.00;77.30
12426;DHT22;6277;49.824;9.562;2024-01-15T05:38:24;2.00;77.30
12426;DHT22;6277;49.824;9.562;2024-01-15T05:40:49;2.00;77.30
12426;DHT22;6277;49.824;9.562;2024-01-15T05:43:15;2.00;77.30
12426;DHT22;6277;49.824;9.562;2024-01-15T05:45:42;2.00;77.40
12426;DHT22;6277;49.824;9.562;2024-01-15T05:48:08;2.00;77.40
12426;DHT22;6277;49.824;9.562;2024-01-15T05:50:34;2.00;77.30
12426;DHT22;6277;49.824;9.562;2024-01-15T05:52:59;2.00;77.30
12426;DHT22;6277;49.824;9.562;2024-01-15T05:55:25;2.00;77.40
12426;DHT22;6277;49.824;9.562;2024-01-15T05:57:51;2.00;77.40
12426;DHT22;6277;49.824;9.562;2024-01-15T06:00:16;2.10;77.50
12426;DHT22;6277;49.824;9.562;2024-01-15T06:02:42;2.00;77.40
12426;DHT22;6277;49.824;9.562;2024-01-15T06:05:07;2.10;77.60
12426;DHT22;6277;49.824;9.562;2024-01-15T06:07:36;2.10;77.50
12426;DHT22;6277;49.824;9.562;2024-01-15T06:10:03;2.10;77.50
12426;DHT22;6277;49.824;9.562;2024-01-15T06:12:30;2.10;77.50
12426;DHT22;6277;49.824;9.562;2024-01-15T06:14:55;2.10;77.40
12426;DHT22;6277;49.824;9.562;2024-01-15T06:17:21;2.10;77.40
12426;DHT22;6277;49.824;9.562;2024-01-15T06:19:47;2.10;77.40
12426;DHT22;6277;49.824;9.562;2024-01-15T06:22:12;2.20;77.40
12426;DHT22;6277;49.824;9.562;2024-01-15T06:24:38;2.20;77.40
12426;DHT22;6277;49.824;9.562;2024-01-15T06:27:03;2.20;77.40
12426;DHT22;6277;49.824;9.562;2024-01-15T06:29:30;2.20;77.40
12426;DHT22;6277;49.824;9.562;2024-01-15T06:31:55;2.20;77.40
12426;DHT22;6277;49.824;9.562;2024-01-15T06:34:21;2.30;77.40
12426;DHT22;6277;49.824;9.562;2024-01-15T06:36:46;2.20;78.00
12426;DHT22;6277;49.824;9.562;2024-01-15T06:39:12;2.30;77.50
12426;DHT22;6277;49.824;9.562;2024-01-15T06:41:37;2.20;77.40
12426;DHT22;6277;49.824;9.562;2024-01-15T06:44:10;2.20;77.40
12426;DHT22;6277;49.824;9.562;2024-01-15T06:46:45;2.30;77.40
12426;DHT22;6277;49.824;9.562;2024-01-15T06:49:11;2.30;77.40
12426;DHT22;6277;49.824;9.562;2024-01-15T06:51:37;2.30;77.50
12426;DHT22;6277;49.824;9.562;2024-01-15T06:54:02;2.30;77.50
12426;DHT22;6277;49.824;9.562;2024-01-15T06:56:28;2.30;77.50
12426;DHT22;6277;49.824;9.562;2024-01-15T06:58:54;2.30;77.50
12426;DHT22;6277;49.824;9.562;2024-01-15T07:01:19;2.30;77.50
12426;DHT22;6277;49.824;9.562;2024-01-15T07:03:45;2.30;77.50
12426;DHT22;6277;49.824;9.562;2024-01-15T07:06:11;2.40;77.50
12426;DHT22;6277;49.824;9.562;2024-01-15T07:08:37;2.40;77.50
12426;DHT22;6277;49.824;9.562;2024-01-15T07:11:06;2.40;77.40
12426;DHT22;6277;49.824;9.562;2024-01-15T07:13:32;2.40;77.50
12426;DHT22;6277;49.824;9.562;2024-01-15T07:15:58;2.50;77.50
12426;DHT22;6277;49.824;9.562;2024-01-15T07:18:23;2.50;77.50
12426;DHT22;6277;49.824;9.562;2024-01-15T07:20:50;2.50;77.50
12426;DHT22;6277;49.824;9.562;2024-01-15T07:23:15;2.50;77.50
12426;DHT22;6277;49.824;9.562;2024-01-15T07:25:41;2.50;77.50
12426;DHT22;6277;49.824;9.562;2024-01-15T07:28:07;2.50;77.50
12426;DHT22;6277;49.824;9.562;2024-01-15T07:30:33;2.50;77.50
12426;DHT22;6277;49.824;9.562;2024-01-15T07:32:58;2.50;77.50
12426;DHT22;6277;49.824;9.562;2024-01-15T07:35:24;2.50;77.50
12426;DHT22;6277;49.824;9.562;2024-01-15T07:37:50;2.50;77.50
12426;DHT22;6277;49.824;9.562;2024-01-15T07:40:15;2.50;77.50
12426;DHT22;6277;49.824;9.562;2024-01-15T07:42:41;2.50;77.50
12426;DHT22;6277;49.824;9.562;2024-01-15T07:45:08;2.50;77.60
12426;DHT22;6277;49.824;9.562;2024-01-15T07:47:34;2.50;77.50
12426;DHT22;6277;49.824;9.562;2024-01-15T07:50:00;2.50;77.50
12426;DHT22;6277;49.824;9.562;2024-01-15T07:52:25;2.50;77.60
12426;DHT22;6277;49.824;9.562;2024-01-15T07:54:51;2.50;77.60
12426;DHT22;6277;49.824;9.562;2024-01-15T07:57:16;2.50;77.70
12426;DHT22;6277;49.824;9.562;2024-01-15T07:59:42;2.50;77.70
12426;DHT22;6277;49.824;9.562;2024-01-15T08:02:07;2.50;77.80
12426;DHT22;6277;49.824;9.562;2024-01-15T08:04:33;2.50;77.80
12426;DHT22;6277;49.824;9.562;2024-01-15T08:06:58;2.50;77.80
12426;DHT22;6277;49.824;9.562;2024-01-15T08:09:24;2.50;77.90
12426;DHT22;6277;49.824;9.562;2024-01-15T08:11:50;2.50;77.90
12426;DHT22;6277;49.824;9.562;2024-01-15T08:14:15;2.50;77.90
12426;DHT22;6277;49.824;9.562;2024-01-15T08:16:41;2.50;77.90
12426;DHT22;6277;49.824;9.562;2024-01-15T08:19:07;2.50;77.90
12426;DHT22;6277;49.824;9.562;2024-01-15T08:21:33;2.60;77.90
12426;DHT22;6277;49.824;9.562;2024-01-15T08:23:59;2.60;77.90
12426;DHT22;6277;49.824;9.562;2024-01-15T08:26:25;2.60;78.00
12426;DHT22;6277;49.824;9.562;2024-01-15T08:28:51;2.60;77.90
12426;DHT22;6277;49.824;9.562;2024-01-15T08:31:17;2.60;78.00
12426;DHT22;6277;49.824;9.562;2024-01-15T08:33:42;2.70;78.60
12426;DHT22;6277;49.824;9.562;2024-01-15T08:36:09;2.70;78.00
12426;DHT22;6277;49.824;9.562;2024-01-15T08:38:35;2.70;78.00
12426;DHT22;6277;49.824;9.562;2024-01-15T08:41:01;2.70;78.10
12426;DHT22;6277;49.824;9.562;2024-01-15T08:43:27;2.80;78.30
12426;DHT22;6277;49.824;9.562;2024-01-15T08:45:52;2.80;78.30
12426;DHT22;6277;49.824;9.562;2024-01-15T08:48:18;2.80;78.30
12426;DHT22;6277;49.824;9.562;2024-01-15T08:50:44;2.90;78.20
12426;DHT22;6277;49.824;9.562;2024-01-15T08:53:13;2.90;78.20
12426;DHT22;6277;49.824;9.562;2024-01-15T08:55:39;2.90;78.20
12426;DHT22;6277;49.824;9.562;2024-01-15T08:58:04;2.90;78.20
12426;DHT22;6277;49.824;9.562;2024-01-15T09:00:30;2.90;78.30
12426;DHT22;6277;49.824;9.562;2024-01-15T09:02:56;3.00;78.30
12426;DHT22;6277;49.824;9.562;2024-01-15T09:05:24;3.00;78.30
12426;DHT22;6277;49.824;9.562;2024-01-15T09:07:50;3.10;78.40
12426;DHT22;6277;49.824;9.562;2024-01-15T09:10:17;3.10;78.40
12426;DHT22;6277;49.824;9.562;2024-01-15T09:12:43;3.10;78.40
12426;DHT22;6277;49.824;9.562;2024-01-15T09:15:09;3.20;78.50
12426;DHT22;6277;49.824;9.562;2024-01-15T09:17:34;3.20;78.60
12426;DHT22;6277;49.824;9.562;2024-01-15T09:20:00;3.30;78.50
12426;DHT22;6277;49.824;9.562;2024-01-15T09:22:26;3.30;78.40
12426;DHT22;6277;49.824;9.562;2024-01-15T09:24:52;3.30;78.20
12426;DHT22;6277;49.824;9.562;2024-01-15T09:27:17;3.30;78.10
12426;DHT22;6277;49.824;9.562;2024-01-15T09:29:43;3.30;78.10
12426;DHT22;6277;49.824;9.562;2024-01-15T09:32:11;3.30;78.10
12426;DHT22;6277;49.824;9.562;2024-01-15T09:34:37;3.20;78.00
12426;DHT22;6277;49.824;9.562;2024-01-15T09:37:03;3.30;78.00
12426;DHT22;6277;49.824;9.562;2024-01-15T09:39:29;3.20;78.00
12426;DHT22;6277;49.824;9.562;2024-01-15T09:41:56;3.20;78.10
12426;DHT22;6277;49.824;9.562;2024-01-15T09:44:21;3.20;78.00
12426;DHT22;6277;49.824;9.562;2024-01-15T09:46:47;3.20;78.00
12426;DHT22;6277;49.824;9.562;2024-01-15T09:49:16;3.20;78.00
12426;DHT22;6277;49.824;9.562;2024-01-15T09:51:42;3.20;78.00
12426;DHT22;6277;49.824;9.562;2024-01-15T09:54:08;3.20;78.10
12426;DHT22;6277;49.824;9.562;2024-01-15T09:56:34;3.20;78.20
12426;DHT22;6277;49.824;9.562;2024-01-15T09:59:01;3.30;78.40
12426;DHT22;6277;49.824;9.562;2024-01-15T10:01:26;3.30;78.40
12426;DHT22;6277;49.824;9.562;2024-01-15T10:03:54;3.40;78.60
12426;DHT22;6277;49.824;9.562;2024-01-15T10:06:21;3.50;78.60
12426;DHT22;6277;49.824;9.562;2024-01-15T10:08:51;3.50;78.60
12426;DHT22;6277;49.824;9.562;2024-01-15T10:11:17;3.50;78.60
12426;DHT22;6277;49.824;9.562;2024-01-15T10:13:46;3.50;78.60
12426;DHT22;6277;49.824;9.562;2024-01-15T10:16:12;3.60;78.50
12426;DHT22;6277;49.824;9.562;2024-01-15T10:18:38;3.60;78.40
12426;DHT22;6277;49.824;9.562;2024-01-15T10:21:06;3.60;78.30
12426;DHT22;6277;49.824;9.562;2024-01-15T10:23:32;3.60;78.30
12426;DHT22;6277;49.824;9.562;2024-01-15T10:25:58;3.60;78.40
12426;DHT22;6277;49.824;9.562;2024-01-15T10:28:26;3.60;78.60
12426;DHT22;6277;49.824;9.562;2024-01-15T10:30:54;3.60;78.80
12426;DHT22;6277;49.824;9.562;2024-01-15T10:33:22;3.70;79.10
12426;DHT22;6277;49.824;9.562;2024-01-15T10:35:54;3.80;79.30
12426;DHT22;6277;49.824;9.562;2024-01-15T10:38:21;3.90;79.50
12426;DHT22;6277;49.824;9.562;2024-01-15T10:40:54;4.00;79.50
12426;DHT22;6277;49.824;9.562;2024-01-15T10:43:21;4.10;79.40
12426;DHT22;6277;49.824;9.562;2024-01-15T10:45:47;4.30;79.60
12426;DHT22;6277;49.824;9.562;2024-01-15T10:48:14;4.40;79.60
12426;DHT22;6277;49.824;9.562;2024-01-15T10:50:40;4.50;79.50
12426;DHT22;6277;49.824;9.562;2024-01-15T10:53:08;4.60;79.20
12426;DHT22;6277;49.824;9.562;2024-01-15T10:55:35;4.70;78.70
12426;DHT22;6277;49.824;9.562;2024-01-15T10:58:03;4.70;78.80
12426;DHT22;6277;49.824;9.562;2024-01-15T11:00:29;4.80;78.90
12426;DHT22;6277;49.824;9.562;2024-01-15T11:02:55;4.90;78.80
12426;DHT22;6277;49.824;9.562;2024-01-15T11:05:21;4.90;78.80
12426;DHT22;6277;49.824;9.562;2024-01-15T11:07:49;5.00;78.60
12426;DHT22;6277;49.824;9.562;2024-01-15T11:10:41;5.10;78.70
12426;DHT22;6277;49.824;9.562;2024-01-15T11:16:06;5.20;78.40
12426;DHT22;6277;49.824;9.562;2024-01-15T11:18:37;5.30;78.10
12426;DHT22;6277;49.824;9.562;2024-01-15T11:23:44;5.30;77.80
12426;DHT22;6277;49.824;9.562;2024-01-15T11:26:35;5.20;77.40
12426;DHT22;6277;49.824;9.562;2024-01-15T11:29:06;5.20;77.50
12426;DHT22;6277;49.824;9.562;2024-01-15T11:34:07;5.10;77.20
12426;DHT22;6277;49.824;9.562;2024-01-15T11:41:59;4.90;76.90
12426;DHT22;6277;49.824;9.562;2024-01-15T11:44:25;4.90;77.40
12426;DHT22;6277;49.824;9.562;2024-01-15T11:47:17;4.90;77.40
12426;DHT22;6277;49.824;9.562;2024-01-15T11:50:01;4.90;77.20
12426;DHT22;6277;49.824;9.562;2024-01-15T11:52:35;4.90;77.20
12426;DHT22;6277;49.824;9.562;2024-01-15T11:55:03;4.80;76.80
12426;DHT22;6277;49.824;9.562;2024-01-15T11:57:48;4.70;77.10
12426;DHT22;6277;49.824;9.562;2024-01-15T12:00:15;4.70;76.80
12426;DHT22;6277;49.824;9.562;2024-01-15T12:02:43;4.60;77.10
12426;DHT22;6277;49.824;9.562;2024-01-15T12:05:09;4.60;77.00
12426;DHT22;6277;49.824;9.562;2024-01-15T12:07:35;4.50;76.90
12426;DHT22;6277;49.824;9.562;2024-01-15T12:10:02;4.50;77.00
12426;DHT22;6277;49.824;9.562;2024-01-15T12:12:39;4.40;76.90
12426;DHT22;6277;49.824;9.562;2024-01-15T12:15:09;4.40;76.90
12426;DHT22;6277;49.824;9.562;2024-01-15T12:17:35;4.30;77.10
12426;DHT22;6277;49.824;9.562;2024-01-15T12:20:03;4.30;77.20
12426;DHT22;6277;49.824;9.562;2024-01-15T12:22:29;4.30;77.30
12426;DHT22;6277;49.824;9.562;2024-01-15T12:24:55;4.30;77.30
12426;DHT22;6277;49.824;9.562;2024-01-15T12:27:21;4.30;77.40
12426;DHT22;6277;49.824;9.562;2024-01-15T12:29:48;4.30;77.40
12426;DHT22;6277;49.824;9.562;2024-01-15T12:32:13;4.30;77.20
12426;DHT22;6277;49.824;9.562;2024-01-15T12:34:38;4.30;77.40
12426;DHT22;6277;49.824;9.562;2024-01-15T12:37:04;4.40;77.60
12426;DHT22;6277;49.824;9.562;2024-01-15T12:39:29;4.40;77.70
12426;DHT22;6277;49.824;9.562;2024-01-15T12:41:55;4.40;77.80
12426;DHT22;6277;49.824;9.562;2024-01-15T12:44:21;4.50;77.60
12426;DHT22;6277;49.824;9.562;2024-01-15T12:46:47;4.50;77.70
12426;DHT22;6277;49.824;9.562;2024-01-15T12:49:13;4.60;77.60
12426;DHT22;6277;49.824;9.562;2024-01-15T12:51:38;4.60;77.50
12426;DHT22;6277;49.824;9.562;2024-01-15T12:54:04;4.70;77.40
12426;DHT22;6277;49.824;9.562;2024-01-15T12:56:30;4.70;77.40
12426;DHT22;6277;49.824;9.562;2024-01-15T12:58:55;4.70;77.60
12426;DHT22;6277;49.824;9.562;2024-01-15T13:01:21;4.70;77.40
12426;DHT22;6277;49.824;9.562;2024-01-15T13:03:47;4.80;77.30
12426;DHT22;6277;49.824;9.562;2024-01-15T13:06:12;4.80;77.10
12426;DHT22;6277;49.824;9.562;2024-01-15T13:08:38;4.80;77.00
12426;DHT22;6277;49.824;9.562;2024-01-15T13:11:03;4.80;76.80
12426;DHT22;6277;49.824;9.562;2024-01-15T13:13:29;4.70;76.80
12426;DHT22;6277;49.824;9.562;2024-01-15T13:15:56;4.70;76.80
12426;DHT22;6277;49.824;9.562;2024-01-15T13:18:21;4.60;76.70
12426;DHT22;6277;49.824;9.562;2024-01-15T13:20:47;4.60;76.70
12426;DHT22;6277;49.824;9.562;2024-01-15T13:23:12;4.60;76.60
12426;DHT22;6277;49.824;9.562;2024-01-15T13:25:38;4.60;76.50
12426;DHT22;6277;49.824;9.562;2024-01-15T13:28:05;4.50;76.50
12426;DHT22;6277;49.824;9.562;2024-01-15T13:30:30;4.50;76.60
12426;DHT22;6277;49.824;9.562;2024-01-15T13:32:57;4.40;76.60
12426;DHT22;6277;49.824;9.562;2024-01-15T13:35:23;4.40;76.60
12426;DHT22;6277;49.824;9.562;2024-01-15T13:37:48;4.30;76.60
12426;DHT22;6277;49.824;9.562;2024-01-15T13:40:14;4.30;76.60
12426;DHT22;6277;49.824;9.562;2024-01-15T13:42:45;4.20;76.60
12426;DHT22;6277;49.824;9.562;2024-01-15T13:45:11;4.20;76.50
12426;DHT22;6277;49.824;9.562;2024-01-15T13:47:40;4.10;76.60
12426;DHT22;6277;49.824;9.562;2024-01-15T13:50:06;4.00;76.80
12426;DHT22;6277;49.824;9.562;2024-01-15T13:52:32;3.90;76.80
12426;DHT22;6277;49.824;9.562;2024-01-15T13:54:57;3.90;76.90
12426;DHT22;6277;49.824;9.562;2024-01-15T13:57:23;3.90;77.10
12426;DHT22;6277;49.824;9.562;2024-01-15T13:59:48;3.80;77.10
12426;DHT22;6277;49.824;9.562;2024-01-15T14:02:14;3.80;77.20
12426;DHT22;6277;49.824;9.562;2024-01-15T14:04:40;3.80;77.30
12426;DHT22;6277;49.824;9.562;2024-01-15T14:07:06;3.70;77.40
12426;DHT22;6277;49.824;9.562;2024-01-15T14:09:32;3.80;77.50
12426;DHT22;6277;49.824;9.562;2024-01-15T14:11:58;3.70;77.50
12426;DHT22;6277;49.824;9.562;2024-01-15T14:14:23;3.70;77.60
12426;DHT22;6277;49.824;9.562;2024-01-15T14:16:49;3.70;77.60
12426;DHT22;6277;49.824;9.562;2024-01-15T14:19:15;3.70;77.70
12426;DHT22;6277;49.824;9.562;2024-01-15T14:21:41;3.70;77.70
12426;DHT22;6277;49.824;9.562;2024-01-15T14:24:06;3.70;77.80
12426;DHT22;6277;49.824;9.562;2024-01-15T14:26:32;3.70;77.80
12426;DHT22;6277;49.824;9.562;2024-01-15T14:28:58;3.80;77.80
12426;DHT22;6277;49.824;9.562;2024-01-15T14:31:26;3.80;77.80
12426;DHT22;6277;49.824;9.562;2024-01-15T14:33:53;3.80;77.80
12426;DHT22;6277;49.824;9.562;2024-01-15T14:36:20;3.80;77.70
12426;DHT22;6277;49.824;9.562;2024-01-15T14:38:46;3.80;78.10
12426;DHT22;6277;49.824;9.562;2024-01-15T14:41:11;3.80;77.40
12426;DHT22;6277;49.824;9.562;2024-01-15T14:43:37;3.80;77.40
12426;DHT22;6277;49.824;9.562;2024-01-15T14:46:02;3.80;77.40
12426;DHT22;6277;49.824;9.562;2024-01-15T14:48:28;3.80;77.20
12426;DHT22;6277;49.824;9.562;2024-01-15T14:50:55;3.80;76.80
12426;DHT22;6277;49.824;9.562;2024-01-15T14:53:20;3.80;76.80
12426;DHT22;6277;49.824;9.562;2024-01-15T14:55:46;3.70;76.70
12426;DHT22;6277;49.824;9.562;2024-01-15T14:58:12;3.70;76.80
12426;DHT22;6277;49.824;9.562;2024-01-15T15:00:37;3.70;76.80
12426;DHT22;6277;49.824;9.562;2024-01-15T15:03:03;3.70;76.80
12426;DHT22;6277;49.824;9.562;2024-01-15T15:05:29;3.70;76.90
12426;DHT22;6277;49.824;9.562;2024-01-15T15:07:54;3.60;76.80
12426;DHT22;6277;49.824;9.562;2024-01-15T15:10:20;3.60;76.80
12426;DHT22;6277;49.824;9.562;2024-01-15T15:12:45;3.60;76.90
12426;DHT22;6277;49.824;9.562;2024-01-15T15:15:11;3.60;77.00
12426;DHT22;6277;49.824;9.562;2024-01-15T15:17:37;3.60;77.00
12426;DHT22;6277;49.824;9.562;2024-01-15T15:20:04;3.60;77.00
12426;DHT22;6277;49.824;9.562;2024-01-15T15:22:30;3.60;77.20
12426;DHT22;6277;49.824;9.562;2024-01-15T15:24:56;3.60;77.10
12426;DHT22;6277;49.824;9.562;2024-01-15T15:27:21;3.60;77.00
12426;DHT22;6277;49.824;9.562;2024-01-15T15:29:47;3.70;77.10
12426;DHT22;6277;49.824;9.562;2024-01-15T15:32:13;3.70;77.10
12426;DHT22;6277;49.824;9.562;2024-01-15T15:34:39;3.70;76.90
12426;DHT22;6277;49.824;9.562;2024-01-15T15:37:05;3.70;77.10
12426;DHT22;6277;49.824;9.562;2024-01-15T15:39:30;3.70;77.00
12426;DHT22;6277;49.824;9.562;2024-01-15T15:41:56;3.70;77.10
12426;DHT22;6277;49.824;9.562;2024-01-15T15:44:22;3.70;77.10
12426;DHT22;6277;49.824;9.562;2024-01-15T15:46:47;3.80;77.10
12426;DHT22;6277;49.824;9.562;2024-01-15T15:49:13;3.80;77.10
12426;DHT22;6277;49.824;9.562;2024-01-15T15:51:40;3.80;76.90
12426;DHT22;6277;49.824;9.562;2024-01-15T15:54:05;3.80;77.00
12426;DHT22;6277;49.824;9.562;2024-01-15T15:56:34;3.80;77.00
12426;DHT22;6277;49.824;9.562;2024-01-15T15:59:04;3.80;76.90
12426;DHT22;6277;49.824;9.562;2024-01-15T16:01:30;3.80;77.00
12426;DHT22;6277;49.824;9.562;2024-01-15T16:03:55;3.80;76.70
12426;DHT22;6277;49.824;9.562;2024-01-15T16:06:21;3.80;76.90
12426;DHT22;6277;49.824;9.562;2024-01-15T16:08:46;3.80;76.90